Disclaimer

Please do not use the information listed here in-flight or in-navigation, as they are not provided to us by the airports but are provided by volunteers, so they might be outdated.

Search


Regions


Airport information page

Radio informations:
Tower (TWR) - 119.7 MHz
A/G VOICE RDO - 6559 MHz

Airport informations:
Latitude: 04° 00' 21.89" N
Longitude: 009° 43' 10.13" E
Elevation: 33 feet - 10 meters
Operating hours: N/A
Operating agency: Military-civil joint use airport
Timezone: UTC+1
Fuel: Jet fuel avaiable but type is unknown.

100/130 MIL Spec, low lead, aviation gasoline (BLUE)

Runway information:
12/30 - 9350 x 148 feet< - >2850 x 45 meters

Recent METARs:
FKKD 130300Z 32002KT 9999 TS BKN013 FEW016CB 25/25 Q1008 NOSIG
FKKD 130400Z VRB03KT 8000 TS SCT013 FEW016CB 25/25 Q1008 BECMG 4000 TS BR
FKKD 130400Z VRB03KT 8000 TS SCT013 FEW016CB 25/25 Q1008 BECMG 4000 TS BR

Airport on the map: